createdAt,value
2023-05-24T00:00:50.692Z,63.98
2023-05-24T00:01:50.674Z,60.49
2023-05-24T00:02:50.770Z,62.65
2023-05-24T00:03:50.810Z,64.09
2023-05-24T00:04:50.678Z,63.98
2023-05-24T00:05:50.620Z,65.14
2023-05-24T00:06:50.609Z,62.48
2023-05-24T00:07:50.592Z,61.96
2023-05-24T00:08:50.567Z,62.27
2023-05-24T00:09:50.585Z,61.76
2023-05-24T00:10:50.568Z,61.86
2023-05-24T00:11:50.545Z,61.76
2023-05-24T00:12:50.535Z,58.26
2023-05-24T00:13:50.533Z,57.44
2023-05-24T00:14:50.507Z,58.57
2023-05-24T00:15:50.499Z,58.16
2023-05-24T00:16:50.542Z,57.64
2023-05-24T00:17:50.505Z,53.94
2023-05-24T00:18:50.472Z,54.97
2023-05-24T00:19:50.474Z,56.00
2023-05-24T00:20:50.540Z,56.31
2023-05-24T00:21:50.400Z,57.13
2023-05-24T00:22:50.392Z,58.78
2023-05-24T00:23:50.408Z,58.47
2023-05-24T00:24:50.357Z,59.19
2023-05-24T00:25:50.378Z,60.21
2023-05-24T00:26:50.338Z,59.52
2023-05-24T00:27:50.327Z,59.93
2023-05-24T00:28:50.313Z,60.14
2023-05-24T00:29:50.313Z,57.26
2023-05-24T00:30:50.279Z,56.34
2023-05-24T00:31:50.313Z,56.54
2023-05-24T00:32:50.315Z,58.18
2023-05-24T00:33:50.263Z,59.31
2023-05-24T00:34:50.216Z,58.91
2023-05-24T00:35:50.237Z,58.50
2023-05-24T00:36:50.207Z,58.18
2023-05-24T00:37:50.207Z,54.90
2023-05-24T00:38:50.166Z,52.73
2023-05-24T00:39:50.190Z,51.40
2023-05-24T00:40:50.141Z,52.53
2023-05-24T00:41:50.126Z,52.84
2023-05-24T00:42:50.148Z,53.56
2023-05-24T00:43:50.100Z,53.87
2023-05-24T00:44:50.111Z,54.59
2023-05-24T00:45:50.097Z,56.64
2023-05-24T00:46:50.065Z,55.82
2023-05-24T00:47:50.100Z,56.34
2023-05-24T00:48:50.033Z,56.95
2023-05-24T00:49:50.027Z,58.08
2023-05-24T00:50:50.009Z,59.01
2023-05-24T00:51:50.020Z,58.29
2023-05-24T00:52:49.985Z,58.18
2023-05-24T00:53:49.966Z,58.50
2023-05-24T00:54:49.960Z,59.03
2023-05-24T00:55:49.932Z,60.17
2023-05-24T00:56:49.951Z,59.86
2023-05-24T00:57:49.910Z,60.37
2023-05-24T00:58:49.909Z,60.99
2023-05-24T00:59:49.885Z,60.58
2023-05-24T01:00:49.884Z,60.58
2023-05-24T01:01:49.947Z,60.37
2023-05-24T01:02:49.934Z,60.81
2023-05-24T01:03:49.911Z,58.86
2023-05-24T01:04:49.838Z,57.31
2023-05-24T01:05:49.826Z,57.21
2023-05-24T01:06:49.809Z,54.94
2023-05-24T01:07:49.773Z,55.46
2023-05-24T01:08:49.784Z,56.08
2023-05-24T01:09:49.752Z,56.49
2023-05-24T01:10:49.762Z,56.59
2023-05-24T01:11:49.736Z,57.52
2023-05-24T01:12:49.720Z,56.80
2023-05-24T01:13:49.690Z,56.80
2023-05-24T01:14:49.705Z,57.21
2023-05-24T01:15:49.740Z,57.52
2023-05-24T01:16:49.659Z,57.62
2023-05-24T01:17:49.687Z,58.14
2023-05-24T01:18:49.650Z,58.06
2023-05-24T01:19:49.742Z,58.26
2023-05-24T01:20:49.779Z,57.75
2023-05-24T01:21:49.616Z,57.14
2023-05-24T01:22:49.601Z,56.82
2023-05-24T01:23:49.575Z,56.82
2023-05-24T01:24:49.556Z,56.21
2023-05-24T01:25:49.573Z,55.49
2023-05-24T01:26:49.522Z,55.38
2023-05-24T01:27:49.500Z,54.77
2023-05-24T01:28:49.489Z,55.90
2023-05-24T01:29:49.494Z,56.00
2023-05-24T01:30:49.503Z,56.31
2023-05-24T01:31:49.481Z,52.61
2023-05-24T01:32:49.479Z,49.82
2023-05-24T01:33:49.435Z,49.41
2023-05-24T01:34:49.441Z,49.10
2023-05-24T01:35:49.419Z,50.11
2023-05-24T01:36:49.388Z,50.44
2023-05-24T01:37:49.386Z,51.04
2023-05-24T01:38:49.371Z,50.21
2023-05-24T01:39:49.384Z,50.83
2023-05-24T01:40:49.368Z,51.86
2023-05-24T01:41:49.326Z,53.61
2023-05-24T01:42:49.335Z,54.64
2023-05-24T01:43:49.298Z,56.08
2023-05-24T01:44:49.314Z,58.24
2023-05-24T01:45:49.274Z,60.09
2023-05-24T01:46:49.300Z,60.94
2023-05-24T01:47:49.292Z,61.05
2023-05-24T01:48:49.226Z,60.74
2023-05-24T01:49:49.282Z,61.35
2023-05-24T01:50:49.213Z,59.91
2023-05-24T01:51:49.196Z,60.74
2023-05-24T01:52:48.678Z,60.63
2023-05-24T01:53:49.148Z,59.33
2023-05-24T01:54:49.166Z,58.40
2023-05-24T01:55:49.131Z,59.12
2023-05-24T01:56:49.128Z,58.81
2023-05-24T01:57:49.105Z,57.78
2023-05-24T01:58:49.098Z,58.19
2023-05-24T01:59:47.919Z,57.16
2023-05-24T02:00:49.093Z,57.57
2023-05-24T02:01:49.080Z,57.26
2023-05-24T02:02:49.155Z,57.57
2023-05-24T02:03:49.049Z,57.09
2023-05-24T02:04:49.037Z,57.60
2023-05-24T02:05:49.013Z,58.11
2023-05-24T02:06:48.993Z,56.67
2023-05-24T02:07:48.967Z,55.43
2023-05-24T02:08:48.966Z,55.02
2023-05-24T02:09:48.981Z,55.02
2023-05-24T02:10:48.938Z,55.23
2023-05-24T02:11:48.965Z,56.16
2023-05-24T02:12:48.902Z,55.02
2023-05-24T02:13:48.908Z,55.95
2023-05-24T02:14:48.893Z,55.33
2023-05-24T02:15:48.877Z,55.13
2023-05-24T02:16:48.926Z,55.43
2023-05-24T02:17:48.913Z,56.16
2023-05-24T02:18:48.842Z,55.74
2023-05-24T02:19:48.844Z,55.64
2023-05-24T02:20:48.822Z,54.94
2023-05-24T02:21:48.791Z,55.05
2023-05-24T02:22:48.792Z,55.46
2023-05-24T02:23:48.771Z,54.94
2023-05-24T02:24:48.756Z,52.26
2023-05-24T02:25:48.732Z,52.26
2023-05-24T02:26:48.728Z,52.47
2023-05-24T02:27:48.740Z,51.65
2023-05-24T02:28:47.445Z,51.95
2023-05-24T02:29:48.691Z,50.92
2023-05-24T02:30:48.721Z,49.25
2023-05-24T02:31:48.646Z,49.05
2023-05-24T02:32:48.731Z,50.38
2023-05-24T02:33:48.644Z,50.80
2023-05-24T02:34:48.626Z,50.38
2023-05-24T02:35:48.628Z,50.49
2023-05-24T02:36:48.589Z,51.62
2023-05-24T02:37:48.587Z,51.10
2023-05-24T02:38:48.574Z,51.42
2023-05-24T02:39:48.540Z,51.62
2023-05-24T02:40:48.539Z,51.21
2023-05-24T02:41:48.520Z,50.80
2023-05-24T02:42:48.518Z,52.34
2023-05-24T02:43:48.573Z,52.66
2023-05-24T02:44:48.507Z,51.73
2023-05-24T02:45:48.478Z,50.90
2023-05-24T02:46:48.582Z,50.08
2023-05-24T02:47:48.598Z,51.10
2023-05-24T02:48:48.549Z,50.70
2023-05-24T02:49:48.425Z,49.02
2023-05-24T02:50:48.411Z,50.36
2023-05-24T02:51:48.413Z,50.98
2023-05-24T02:52:48.421Z,51.91
2023-05-24T02:53:48.360Z,52.22
2023-05-24T02:54:48.345Z,53.25
2023-05-24T02:55:48.346Z,52.73
2023-05-24T02:56:48.345Z,53.66
2023-05-24T02:57:48.317Z,54.69
2023-05-24T02:58:48.308Z,55.00
2023-05-24T02:59:48.309Z,54.79
2023-05-24T03:00:48.289Z,56.23
2023-05-24T03:01:48.304Z,54.90
2023-05-24T03:02:48.354Z,55.49
2023-05-24T03:03:48.339Z,56.10
2023-05-24T03:04:48.223Z,54.87
2023-05-24T03:05:48.193Z,55.07
2023-05-24T03:06:48.217Z,54.25
2023-05-24T03:07:48.183Z,53.84
2023-05-24T03:08:48.159Z,54.46
2023-05-24T03:09:48.160Z,54.15
2023-05-24T03:10:48.175Z,53.63
2023-05-24T03:11:48.131Z,54.66
2023-05-24T03:12:48.109Z,53.84
2023-05-24T03:13:47.578Z,52.81
2023-05-24T03:14:48.086Z,52.81
2023-05-24T03:15:48.131Z,51.37
2023-05-24T03:16:48.042Z,52.09
2023-05-24T03:17:48.081Z,52.40
2023-05-24T03:18:48.039Z,52.91
2023-05-24T03:19:48.025Z,52.91
2023-05-24T03:20:48.033Z,54.05
2023-05-24T03:21:48.005Z,54.05
2023-05-24T03:22:47.974Z,52.19
2023-05-24T03:23:47.979Z,51.98
2023-05-24T03:24:47.967Z,52.17
2023-05-24T03:25:47.953Z,52.37
2023-05-24T03:26:47.936Z,52.48
2023-05-24T03:27:47.902Z,53.09
2023-05-24T03:28:47.934Z,53.92
2023-05-24T03:29:47.903Z,53.50
2023-05-24T03:30:47.883Z,54.74
2023-05-24T03:31:47.903Z,53.30
2023-05-24T03:32:47.883Z,52.78
2023-05-24T03:33:47.855Z,51.86
2023-05-24T03:34:47.842Z,51.24
2023-05-24T03:35:47.809Z,51.04
2023-05-24T03:36:47.795Z,51.86
2023-05-24T03:37:47.785Z,52.76
2023-05-24T03:38:47.777Z,54.30
2023-05-24T03:39:47.774Z,55.64
2023-05-24T03:40:47.749Z,56.46
2023-05-24T03:41:47.731Z,56.67
2023-05-24T03:42:47.717Z,55.02
2023-05-24T03:43:47.702Z,55.26
2023-05-24T03:44:47.688Z,55.33
2023-05-24T03:45:47.713Z,56.80
2023-05-24T03:46:47.663Z,57.10
2023-05-24T03:47:47.709Z,58.03
2023-05-24T03:48:47.659Z,58.45
2023-05-24T03:49:47.616Z,59.06
2023-05-24T03:50:47.622Z,59.68
2023-05-24T03:51:47.580Z,59.37
2023-05-24T03:52:47.570Z,58.65
2023-05-24T03:53:47.562Z,58.45
2023-05-24T03:54:45.836Z,59.78
2023-05-24T03:55:47.552Z,58.65
2023-05-24T03:56:47.524Z,58.86
2023-05-24T03:57:47.504Z,56.38
2023-05-24T03:58:47.511Z,56.59
2023-05-24T03:59:47.504Z,55.15
2023-05-24T04:00:47.473Z,55.15
2023-05-24T04:01:47.511Z,55.87
2023-05-24T04:02:47.525Z,56.29
2023-05-24T04:03:47.496Z,57.62
2023-05-24T04:04:47.407Z,59.17
2023-05-24T04:05:47.394Z,58.96
2023-05-24T04:06:47.393Z,59.06
2023-05-24T04:07:47.384Z,59.68
2023-05-24T04:08:47.362Z,59.58
2023-05-24T04:09:47.361Z,58.54
2023-05-24T04:10:47.352Z,58.75
2023-05-24T04:11:47.317Z,58.75
2023-05-24T04:12:47.328Z,58.54
2023-05-24T04:13:47.302Z,59.37
2023-05-24T04:14:47.273Z,58.65
2023-05-24T04:15:47.265Z,58.93
2023-05-24T04:16:47.456Z,60.17
2023-05-24T04:17:47.386Z,60.78
2023-05-24T04:18:47.302Z,62.12
2023-05-24T04:19:47.205Z,61.63
2023-05-24T04:20:47.190Z,61.12
2023-05-24T04:21:47.163Z,59.86
2023-05-24T04:22:47.176Z,57.90
2023-05-24T04:23:47.145Z,57.80
2023-05-24T04:24:47.187Z,57.80
2023-05-24T04:25:47.119Z,57.29
2023-05-24T04:26:47.327Z,56.77
2023-05-24T04:27:47.110Z,57.16
2023-05-24T04:28:47.096Z,57.36
2023-05-24T04:29:47.066Z,59.22
2023-05-24T04:30:47.061Z,58.39
2023-05-24T04:31:47.102Z,58.29
2023-05-24T04:32:47.043Z,59.80
2023-05-24T04:33:47.002Z,60.31
2023-05-24T04:34:47.005Z,61.04
2023-05-24T04:35:46.995Z,62.48
2023-05-24T04:36:46.993Z,62.45
2023-05-24T04:37:46.964Z,63.57
2023-05-24T04:38:46.961Z,64.37
2023-05-24T04:39:46.939Z,67.44
2023-05-24T04:40:46.938Z,70.70
2023-05-24T04:41:46.932Z,72.14
2023-05-24T04:42:46.921Z,75.38
2023-05-24T04:43:46.894Z,76.68
2023-05-24T04:44:46.875Z,79.52
2023-05-24T04:45:46.878Z,81.32
2023-05-24T04:46:46.890Z,91.56
2023-05-24T04:47:46.853Z,93.26
2023-05-24T04:48:46.819Z,91.27
2023-05-24T04:49:46.813Z,97.06
2023-05-24T04:50:46.806Z,96.86
2023-05-24T04:51:46.809Z,98.04
2023-05-24T04:52:46.779Z,97.79
2023-05-24T04:53:46.769Z,99.22
2023-05-24T04:54:46.736Z,99.99
2023-05-24T04:55:46.751Z,99.99
2023-05-24T04:56:46.707Z,99.99
2023-05-24T04:57:46.698Z,99.99
2023-05-24T04:58:46.686Z,99.99
2023-05-24T04:59:46.678Z,99.99
2023-05-24T05:00:46.677Z,99.99
2023-05-24T05:01:46.669Z,99.99
2023-05-24T05:02:46.704Z,99.99
2023-05-24T05:03:46.774Z,99.99
2023-05-24T05:04:46.598Z,99.99
2023-05-24T05:05:46.093Z,99.99
2023-05-24T05:06:46.575Z,99.99
2023-05-24T05:07:46.563Z,99.99
2023-05-24T05:08:46.554Z,99.99
2023-05-24T05:09:46.539Z,99.99
2023-05-24T05:10:46.507Z,99.05
2023-05-24T05:11:46.507Z,96.92
2023-05-24T05:12:46.485Z,91.62
2023-05-24T05:13:46.477Z,95.85
2023-05-24T05:14:46.463Z,95.00
2023-05-24T05:15:46.449Z,95.20
2023-05-24T05:16:46.718Z,96.22
2023-05-24T05:17:46.440Z,88.39
2023-05-24T05:18:46.426Z,87.02
2023-05-24T05:19:45.909Z,91.19
2023-05-24T05:20:46.720Z,87.49
2023-05-24T05:21:46.365Z,85.68
2023-05-24T05:22:46.345Z,80.77
2023-05-24T05:23:46.351Z,77.12
2023-05-24T05:24:46.331Z,77.38
2023-05-24T05:25:46.315Z,74.44
2023-05-24T05:26:46.281Z,76.34
2023-05-24T05:27:46.278Z,77.72
2023-05-24T05:28:46.288Z,75.73
2023-05-24T05:29:46.260Z,75.83
2023-05-24T05:30:46.233Z,75.29
2023-05-24T05:31:46.235Z,72.85
2023-05-24T05:32:46.264Z,75.63
2023-05-24T05:33:46.201Z,78.00
2023-05-24T05:34:46.173Z,86.69
2023-05-24T05:35:46.156Z,95.23
2023-05-24T05:36:46.144Z,98.64
2023-05-24T05:37:46.203Z,99.99
2023-05-24T05:38:46.123Z,99.99
2023-05-24T05:39:46.110Z,99.99
2023-05-24T05:40:46.097Z,99.99
2023-05-24T05:41:46.321Z,99.99
2023-05-24T05:42:46.073Z,99.99
2023-05-24T05:43:46.062Z,99.99
2023-05-24T05:44:46.047Z,99.99
2023-05-24T05:45:46.057Z,99.99
2023-05-24T05:46:46.096Z,99.99
2023-05-24T05:47:46.040Z,99.99
2023-05-24T05:48:46.612Z,99.99
2023-05-24T05:49:45.996Z,99.99
2023-05-24T05:50:45.964Z,99.99
2023-05-24T05:51:45.951Z,99.99
2023-05-24T05:52:45.964Z,99.99
2023-05-24T05:53:45.927Z,99.99
2023-05-24T05:54:45.946Z,99.99
2023-05-24T05:55:45.900Z,99.99
2023-05-24T05:56:45.886Z,99.99
2023-05-24T05:57:45.894Z,99.99
2023-05-24T05:58:45.985Z,99.99
2023-05-24T05:59:45.856Z,99.99
2023-05-24T06:00:45.832Z,99.99
2023-05-24T06:01:45.832Z,99.99
2023-05-24T06:02:45.860Z,99.99
2023-05-24T06:03:45.569Z,99.99
2023-05-24T06:04:46.110Z,99.99
2023-05-24T06:05:45.923Z,99.99
2023-05-24T06:06:44.983Z,99.99
2023-05-24T06:07:45.737Z,99.99
2023-05-24T06:08:45.719Z,99.99
2023-05-24T06:09:45.699Z,99.99
2023-05-24T06:10:45.699Z,99.99
2023-05-24T06:11:45.718Z,99.99
2023-05-24T06:12:45.663Z,99.99
2023-05-24T06:13:45.656Z,99.99
2023-05-24T06:14:45.627Z,99.99
2023-05-24T06:15:45.653Z,99.99
2023-05-24T06:16:44.728Z,92.67
2023-05-24T06:17:45.622Z,89.18
2023-05-24T06:18:57.089Z,78.44
2023-05-24T06:19:46.564Z,70.62
2023-05-24T06:20:46.025Z,66.06
2023-05-24T06:21:45.066Z,63.24
2023-05-24T06:22:45.513Z,61.49
2023-05-24T06:23:45.525Z,60.75
2023-05-24T06:24:45.493Z,59.84
2023-05-24T06:25:45.722Z,58.98
2023-05-24T06:26:45.468Z,57.74
2023-05-24T06:27:45.458Z,57.41
2023-05-24T06:28:45.468Z,56.37
2023-05-24T06:29:45.451Z,56.48
2023-05-24T06:30:45.702Z,55.54
2023-05-24T06:31:45.429Z,55.41
2023-05-24T06:32:45.420Z,55.59
2023-05-24T06:33:52.496Z,54.10
2023-05-24T06:34:46.380Z,53.67
2023-05-24T06:35:45.355Z,52.24
2023-05-24T06:36:45.335Z,51.36
2023-05-24T06:37:45.319Z,51.61
2023-05-24T06:38:45.302Z,50.63
2023-05-24T06:39:45.301Z,51.84
2023-05-24T06:40:45.276Z,52.37
2023-05-24T06:41:45.257Z,54.00
2023-05-24T06:42:45.264Z,56.45
2023-05-24T06:43:45.239Z,56.45
2023-05-24T06:44:45.224Z,56.12
2023-05-24T06:45:45.210Z,55.21
2023-05-24T06:46:45.208Z,55.29
2023-05-24T06:47:45.247Z,55.04
2023-05-24T06:48:45.372Z,54.63
2023-05-24T06:49:45.185Z,55.01
2023-05-24T06:50:45.283Z,53.50
2023-05-24T06:51:44.389Z,51.94
2023-05-24T06:52:45.117Z,51.97
2023-05-24T06:53:45.122Z,50.79
2023-05-24T06:54:45.088Z,49.54
2023-05-24T06:55:45.082Z,48.81
2023-05-24T06:56:45.063Z,48.88
2023-05-24T06:57:45.054Z,49.56
2023-05-24T06:58:45.057Z,48.33
2023-05-24T06:59:45.058Z,47.99
2023-05-24T07:00:45.315Z,47.69
2023-05-24T07:01:45.173Z,47.69
2023-05-24T07:02:45.053Z,46.66
2023-05-24T07:03:44.970Z,46.86
2023-05-24T07:04:44.962Z,46.86
2023-05-24T07:05:44.936Z,46.26
2023-05-24T07:06:44.992Z,46.61
2023-05-24T07:07:44.448Z,46.53
2023-05-24T07:08:44.918Z,46.93
2023-05-24T07:09:44.896Z,47.23
2023-05-24T07:10:45.086Z,47.08
2023-05-24T07:11:44.920Z,46.24
2023-05-24T07:12:44.858Z,44.84
2023-05-24T07:13:44.842Z,44.93
2023-05-24T07:14:44.938Z,45.24
2023-05-24T07:15:44.810Z,45.20
2023-05-24T07:16:44.858Z,44.09
2023-05-24T07:17:44.817Z,44.43
2023-05-24T07:18:44.781Z,45.30
2023-05-24T07:19:44.767Z,45.62
2023-05-24T07:20:45.402Z,45.38
2023-05-24T07:21:44.724Z,44.54
2023-05-24T07:22:44.742Z,45.80
2023-05-24T07:23:44.689Z,45.65
2023-05-24T07:24:44.691Z,46.53
2023-05-24T07:25:44.667Z,45.84
2023-05-24T07:26:44.682Z,46.95
2023-05-24T07:27:44.668Z,46.27
2023-05-24T07:28:44.628Z,47.47
2023-05-24T07:29:46.944Z,46.42
2023-05-24T07:30:44.623Z,47.06
2023-05-24T07:31:44.653Z,45.14
2023-05-24T07:32:44.706Z,46.22
2023-05-24T07:33:44.560Z,47.54
2023-05-24T07:34:44.541Z,47.19
2023-05-24T07:35:44.525Z,46.47
2023-05-24T07:36:44.550Z,46.27
2023-05-24T07:37:44.500Z,46.04
2023-05-24T07:38:44.539Z,46.23
2023-05-24T07:39:44.490Z,47.55
2023-05-24T07:40:44.676Z,45.70
2023-05-24T07:41:44.470Z,45.58
2023-05-24T07:42:44.432Z,44.34
2023-05-24T07:43:44.449Z,45.16
2023-05-24T07:44:44.398Z,45.96
2023-05-24T07:45:44.529Z,44.93
2023-05-24T07:46:44.468Z,45.24
2023-05-24T07:47:44.405Z,45.24
2023-05-24T07:48:44.348Z,43.55
2023-05-24T07:49:44.350Z,43.85
2023-05-24T07:50:44.472Z,45.16
2023-05-24T07:51:44.335Z,44.08
2023-05-24T07:52:44.299Z,44.08
2023-05-24T07:53:44.290Z,46.50
2023-05-24T07:54:44.290Z,45.06
2023-05-24T07:55:44.451Z,44.43
2023-05-24T07:56:44.253Z,43.85
2023-05-24T07:57:44.254Z,44.28
2023-05-24T07:58:44.224Z,43.58
2023-05-24T07:59:44.229Z,43.19
2023-05-24T08:00:42.310Z,43.24
2023-05-24T08:01:44.192Z,42.02
2023-05-24T08:02:44.348Z,40.87
2023-05-24T08:03:44.326Z,41.47
2023-05-24T08:04:44.155Z,42.49
2023-05-24T08:05:44.333Z,43.08
2023-05-24T08:06:44.151Z,42.96
2023-05-24T08:07:44.135Z,41.57
2023-05-24T08:08:44.130Z,42.40
2023-05-24T08:09:44.097Z,41.55
2023-05-24T08:10:44.082Z,41.69
2023-05-24T08:11:44.083Z,40.00
2023-05-24T08:12:44.038Z,40.73
2023-05-24T08:13:44.047Z,39.87
2023-05-24T08:14:44.049Z,40.00
2023-05-24T08:15:44.287Z,39.48
2023-05-24T08:16:44.091Z,41.16
2023-05-24T08:17:43.997Z,39.72
2023-05-24T08:18:43.977Z,39.98
2023-05-24T08:19:43.946Z,39.86
2023-05-24T08:20:43.977Z,39.04
2023-05-24T08:21:43.919Z,38.14
2023-05-24T08:22:43.978Z,39.26
2023-05-24T08:23:43.916Z,39.69
2023-05-24T08:24:43.871Z,39.79
2023-05-24T08:25:44.175Z,39.59
2023-05-24T08:26:43.871Z,39.37
2023-05-24T08:27:43.908Z,38.74
2023-05-24T08:28:43.861Z,38.66
2023-05-24T08:29:43.830Z,39.36
2023-05-24T08:30:43.816Z,38.82
2023-05-24T08:31:43.890Z,38.82
2023-05-24T08:32:43.833Z,39.34
2023-05-24T08:33:43.758Z,38.70
2023-05-24T08:34:43.799Z,39.60
2023-05-24T08:35:43.996Z,39.12
2023-05-24T08:36:43.731Z,40.67
2023-05-24T08:37:43.729Z,38.73
2023-05-24T08:38:43.691Z,39.69
2023-05-24T08:39:43.680Z,38.66
2023-05-24T08:40:43.737Z,39.34
2023-05-24T08:41:47.399Z,37.84
2023-05-24T08:42:44.680Z,38.85
2023-05-24T08:43:43.623Z,38.12
2023-05-24T08:44:43.603Z,37.38
2023-05-24T08:45:43.868Z,38.50
2023-05-24T08:46:43.659Z,37.30
2023-05-24T08:47:43.659Z,38.22
2023-05-24T08:48:43.597Z,39.43
2023-05-24T08:49:43.548Z,40.30
2023-05-24T08:50:43.546Z,39.46
2023-05-24T08:51:43.550Z,38.62
2023-05-24T08:52:43.519Z,37.88
2023-05-24T08:53:43.516Z,38.70
2023-05-24T08:54:43.501Z,38.38
2023-05-24T08:55:43.881Z,38.07
2023-05-24T08:56:43.484Z,40.04
2023-05-24T08:57:43.460Z,37.08
2023-05-24T08:58:43.451Z,37.15
2023-05-24T08:59:43.446Z,36.16
2023-05-24T09:00:43.424Z,35.74
2023-05-24T09:01:43.402Z,35.80
2023-05-24T09:02:43.492Z,34.58
2023-05-24T09:03:43.439Z,34.52
2023-05-24T09:04:43.388Z,34.52
2023-05-24T09:05:43.616Z,34.22
2023-05-24T09:06:43.329Z,35.13
2023-05-24T09:07:43.316Z,34.71
2023-05-24T09:08:43.998Z,34.18
2023-05-24T09:09:43.345Z,34.59
2023-05-24T09:10:53.995Z,35.28
2023-05-24T09:11:44.287Z,35.91
2023-05-24T09:12:43.285Z,34.78
2023-05-24T09:13:43.240Z,35.49
2023-05-24T09:14:43.280Z,34.51
2023-05-24T09:15:43.472Z,33.93
2023-05-24T09:16:43.282Z,34.59
2023-05-24T09:17:43.252Z,34.27
2023-05-24T09:18:43.242Z,31.90
2023-05-24T09:19:43.196Z,34.08
2023-05-24T09:20:43.377Z,34.19
2023-05-24T09:21:43.151Z,35.11
2023-05-24T09:22:43.176Z,35.41
2023-05-24T09:23:43.155Z,35.61
2023-05-24T09:24:43.115Z,35.68
2023-05-24T09:25:43.102Z,36.13
2023-05-24T09:26:43.080Z,36.69
2023-05-24T09:27:43.067Z,36.49
2023-05-24T09:28:43.064Z,36.18
2023-05-24T09:29:43.049Z,36.16
2023-05-24T09:30:43.153Z,35.05
2023-05-24T09:31:43.103Z,34.69
2023-05-24T09:32:43.019Z,37.38
2023-05-24T09:33:43.005Z,36.79
2023-05-24T09:34:43.012Z,36.26
2023-05-24T09:35:43.015Z,34.93
2023-05-24T09:36:43.011Z,34.99
2023-05-24T09:37:42.945Z,34.31
2023-05-24T09:38:42.947Z,35.01
2023-05-24T09:39:42.918Z,34.71
2023-05-24T09:40:43.073Z,35.23
2023-05-24T09:41:42.901Z,34.41
2023-05-24T09:42:42.865Z,35.28
2023-05-24T09:43:42.873Z,34.46
2023-05-24T09:44:42.848Z,36.19
2023-05-24T09:45:42.869Z,34.68
2023-05-24T09:46:42.856Z,33.83
2023-05-24T09:47:42.862Z,36.24
2023-05-24T09:48:42.814Z,35.16
2023-05-24T09:49:42.793Z,34.86
2023-05-24T09:50:42.940Z,34.51
2023-05-24T09:51:42.816Z,35.54
2023-05-24T09:52:42.257Z,35.39
2023-05-24T09:53:42.745Z,33.88
2023-05-24T09:54:42.738Z,35.24
2023-05-24T09:55:42.701Z,35.52
2023-05-24T09:56:42.724Z,32.45
2023-05-24T09:57:42.700Z,33.07
2023-05-24T09:58:42.706Z,34.68
2023-05-24T09:59:42.653Z,33.70
2023-05-24T10:00:43.262Z,34.56
2023-05-24T10:01:42.732Z,33.55
2023-05-24T10:02:52.306Z,33.25
2023-05-24T10:03:43.260Z,33.04
2023-05-24T10:04:42.663Z,33.32
2023-05-24T10:05:42.572Z,32.03
2023-05-24T10:06:42.581Z,32.93
2023-05-24T10:07:40.625Z,32.15
2023-05-24T10:08:42.541Z,33.07
2023-05-24T10:09:42.532Z,32.54
2023-05-24T10:10:43.014Z,33.72
2023-05-24T10:11:42.586Z,31.64
2023-05-24T10:12:42.509Z,31.87
2023-05-24T10:13:42.504Z,32.07
2023-05-24T10:14:42.461Z,33.12
2023-05-24T10:15:42.529Z,34.59
2023-05-24T10:16:42.570Z,33.80
2023-05-24T10:17:42.522Z,34.08
2023-05-24T10:18:42.438Z,32.83
2023-05-24T10:19:42.413Z,33.43
2023-05-24T10:20:42.759Z,33.83
2023-05-24T10:21:42.453Z,33.04
2023-05-24T10:22:42.377Z,34.53
2023-05-24T10:23:42.365Z,33.65
2023-05-24T10:24:42.357Z,35.59
2023-05-24T10:25:42.356Z,33.18
2023-05-24T10:26:42.358Z,33.76
2023-05-24T10:27:42.309Z,35.05
2023-05-24T10:28:42.309Z,33.25
2023-05-24T10:29:42.283Z,33.25
2023-05-24T10:30:42.730Z,34.55
2023-05-24T10:31:42.426Z,33.33
2023-05-24T10:32:42.263Z,35.13
2023-05-24T10:33:42.264Z,34.78
2023-05-24T10:34:42.238Z,34.16
2023-05-24T10:35:42.242Z,33.45
2023-05-24T10:36:42.203Z,34.75
2023-05-24T10:37:42.176Z,33.65
2023-05-24T10:38:42.180Z,33.44
2023-05-24T10:39:42.164Z,33.60
2023-05-24T10:40:42.215Z,32.31
2023-05-24T10:41:42.311Z,32.41
2023-05-24T10:42:42.164Z,31.61
2023-05-24T10:43:42.433Z,32.60
2023-05-24T10:44:42.117Z,32.72
2023-05-24T10:45:42.396Z,32.59
2023-05-24T10:46:42.103Z,32.06
2023-05-24T10:47:42.104Z,32.46
2023-05-24T10:48:42.084Z,33.60
2023-05-24T10:49:42.062Z,32.64
2023-05-24T10:50:42.504Z,33.47
2023-05-24T10:51:42.127Z,34.27
2023-05-24T10:52:42.043Z,33.33
2023-05-24T10:53:42.009Z,34.69
2023-05-24T10:54:49.601Z,36.04
2023-05-24T10:55:42.946Z,35.71
2023-05-24T10:56:41.960Z,34.21
2023-05-24T10:57:40.026Z,36.15
2023-05-24T10:58:41.960Z,36.32
2023-05-24T10:59:41.940Z,35.01
2023-05-24T11:00:41.918Z,34.63
2023-05-24T11:01:41.913Z,34.81
2023-05-24T11:02:41.907Z,33.83
2023-05-24T11:03:41.898Z,35.46
2023-05-24T11:04:41.873Z,34.58
2023-05-24T11:05:43.176Z,35.99
2023-05-24T11:06:41.844Z,34.84
2023-05-24T11:07:42.115Z,34.11
2023-05-24T11:08:41.801Z,33.93
2023-05-24T11:09:41.923Z,31.46
2023-05-24T11:10:42.921Z,32.15
2023-05-24T11:11:41.810Z,31.83
2023-05-24T11:12:41.750Z,31.53
2023-05-24T11:13:41.784Z,32.56
2023-05-24T11:14:41.738Z,31.64
2023-05-24T11:15:41.721Z,32.90
2023-05-24T11:16:41.735Z,31.18
2023-05-24T11:17:43.586Z,31.77
2023-05-24T11:18:41.693Z,32.08
2023-05-24T11:19:41.669Z,32.38
2023-05-24T11:20:41.969Z,32.76
2023-05-24T11:21:41.637Z,31.88
2023-05-24T11:22:41.654Z,32.69
2023-05-24T11:23:41.659Z,32.20
2023-05-24T11:24:41.628Z,30.51
2023-05-24T11:25:41.080Z,30.32
2023-05-24T11:26:41.579Z,32.12
2023-05-24T11:27:41.581Z,31.03
2023-05-24T11:28:41.622Z,32.54
2023-05-24T11:29:41.558Z,31.18
2023-05-24T11:30:41.731Z,32.24
2023-05-24T11:31:44.081Z,31.06
2023-05-24T11:32:41.517Z,31.74
2023-05-24T11:33:41.532Z,32.84
2023-05-24T11:34:42.418Z,32.04
2023-05-24T11:35:39.640Z,33.04
2023-05-24T11:36:41.478Z,33.05
2023-05-24T11:38:41.425Z,34.34
2023-05-24T11:39:41.417Z,34.25
2023-05-24T11:40:41.612Z,33.12
2023-05-24T11:41:41.391Z,34.13
2023-05-24T11:42:42.330Z,32.69
2023-05-24T11:43:41.343Z,32.28
2023-05-24T11:44:41.344Z,33.06
2023-05-24T11:45:41.367Z,33.25
2023-05-24T11:46:41.323Z,33.45
2023-05-24T11:47:41.363Z,33.48
2023-05-24T11:48:42.255Z,33.70
2023-05-24T11:49:41.308Z,34.23
2023-05-24T11:50:49.269Z,34.15
2023-05-24T11:51:42.399Z,35.74
2023-05-24T11:52:41.618Z,35.33
2023-05-24T11:53:41.237Z,34.41
2023-05-24T11:54:41.262Z,34.22
2023-05-24T11:55:41.414Z,36.08
2023-05-24T11:56:41.216Z,34.28
2023-05-24T11:57:41.212Z,33.63
2023-05-24T11:58:41.163Z,35.34
2023-05-24T11:59:41.184Z,34.64
2023-05-24T12:00:41.376Z,35.16
2023-05-24T12:01:41.181Z,34.78
2023-05-24T12:02:41.167Z,35.16
2023-05-24T12:03:41.219Z,34.34
2023-05-24T12:04:41.132Z,34.58
2023-05-24T12:05:41.081Z,35.49
2023-05-24T12:06:41.095Z,36.07
2023-05-24T12:07:41.050Z,34.78
2023-05-24T12:08:41.252Z,35.83
2023-05-24T12:09:41.050Z,36.43
2023-05-24T12:10:41.194Z,35.88
2023-05-24T12:11:40.977Z,35.13
2023-05-24T12:12:45.775Z,35.49
2023-05-24T12:13:42.035Z,33.65
2023-05-24T12:14:41.027Z,33.24
2023-05-24T12:15:41.016Z,33.82
2023-05-24T12:16:41.002Z,33.44
2023-05-24T12:17:40.918Z,33.00
2023-05-24T12:18:55.169Z,33.81
2023-05-24T12:19:41.897Z,34.33
2023-05-24T12:20:41.098Z,33.40
2023-05-24T12:21:40.860Z,34.17
2023-05-24T12:22:40.834Z,33.75
2023-05-24T12:23:40.840Z,33.92
2023-05-24T12:24:40.861Z,32.75
2023-05-24T12:25:40.813Z,31.57
2023-05-24T12:26:40.794Z,32.84
2023-05-24T12:27:41.162Z,31.84
2023-05-24T12:28:40.771Z,31.52
2023-05-24T12:29:41.913Z,31.62
2023-05-24T12:30:40.847Z,32.53
2023-05-24T12:31:40.780Z,32.78
2023-05-24T12:32:40.775Z,33.53
2023-05-24T12:33:40.712Z,33.45
2023-05-24T12:34:40.710Z,34.05
2023-05-24T12:35:40.659Z,32.95
2023-05-24T12:36:40.674Z,33.65
2023-05-24T12:37:40.647Z,34.96
2023-05-24T12:38:40.650Z,34.05
2023-05-24T12:39:38.697Z,33.53
2023-05-24T12:40:40.699Z,34.98
2023-05-24T12:41:40.613Z,36.15
2023-05-24T12:42:40.576Z,35.51
2023-05-24T12:43:40.631Z,34.59
2023-05-24T12:44:40.559Z,35.47
2023-05-24T12:45:40.611Z,34.94
2023-05-24T12:46:40.603Z,35.05
2023-05-24T12:47:40.527Z,34.33
2023-05-24T12:48:40.507Z,36.00
2023-05-24T12:49:40.485Z,34.10
2023-05-24T12:50:40.608Z,34.71
2023-05-24T12:51:40.504Z,35.16
2023-05-24T12:52:40.451Z,35.13
2023-05-24T12:53:40.483Z,34.45